createdAt,value
2022-11-14T00:00:36.845Z,9.35
2022-11-14T00:03:20.582Z,9.46
2022-11-14T00:04:48.686Z,9.35
2022-11-14T00:06:16.952Z,9.36
2022-11-14T00:07:45.533Z,9.35
2022-11-14T00:09:14.498Z,9.33
2022-11-14T00:10:42.678Z,9.28
2022-11-14T00:13:26.548Z,9.41
2022-11-14T00:16:10.732Z,9.42
2022-11-14T00:17:39.046Z,9.28
2022-11-14T00:20:21.147Z,9.37
2022-11-14T00:23:03.525Z,9.31
2022-11-14T00:24:31.824Z,9.20
2022-11-14T00:25:59.281Z,9.19
2022-11-14T00:28:41.651Z,9.26
2022-11-14T00:31:25.738Z,9.12
2022-11-14T00:34:08.996Z,9.01
2022-11-14T00:36:51.258Z,9.05
2022-11-14T00:39:34.359Z,9.04
2022-11-14T00:41:02.591Z,8.95
2022-11-14T00:42:30.594Z,8.94
2022-11-14T00:45:13.247Z,9.00
2022-11-14T00:46:42.185Z,8.87
2022-11-14T00:48:11.583Z,8.82
2022-11-14T00:49:39.200Z,8.81
2022-11-14T00:51:06.825Z,8.81
2022-11-14T00:53:48.479Z,8.89
2022-11-14T00:55:16.089Z,8.78
2022-11-14T00:56:49.312Z,8.76
2022-11-14T00:59:33.465Z,8.86
2022-11-14T01:02:15.706Z,8.88
2022-11-14T01:03:42.963Z,8.75
2022-11-14T01:05:10.283Z,8.74
2022-11-14T01:06:37.410Z,8.72
2022-11-14T01:08:04.824Z,8.70
2022-11-14T01:10:50.607Z,8.78
2022-11-14T01:12:18.085Z,8.66
2022-11-14T01:13:47.236Z,8.66
2022-11-14T01:16:29.246Z,8.74
2022-11-14T01:17:56.787Z,8.63
2022-11-14T01:19:24.328Z,8.60
2022-11-14T01:22:08.518Z,8.58
2022-11-14T01:24:52.255Z,8.55
2022-11-14T01:26:19.388Z,8.46
2022-11-14T01:27:46.633Z,8.43
2022-11-14T01:29:13.889Z,8.41
2022-11-14T01:30:42.457Z,8.39
2022-11-14T01:32:09.477Z,8.34
2022-11-14T01:33:36.797Z,8.32
2022-11-14T01:35:06.413Z,8.33
2022-11-14T01:36:33.194Z,8.32
2022-11-14T01:38:02.159Z,8.33
2022-11-14T01:40:45.920Z,8.41
2022-11-14T01:43:33.381Z,8.34
2022-11-14T01:45:01.354Z,8.21
2022-11-14T01:46:33.097Z,8.20
2022-11-14T01:48:00.915Z,8.14
2022-11-14T01:50:58.017Z,8.25
2022-11-14T01:52:28.947Z,8.14
2022-11-14T01:54:00.930Z,8.09
2022-11-14T01:55:28.793Z,8.09
2022-11-14T01:56:59.064Z,8.07
2022-11-14T01:58:30.409Z,8.09
2022-11-14T02:01:22.720Z,8.27
2022-11-14T02:02:51.875Z,8.16
2022-11-14T02:04:32.636Z,8.18
2022-11-14T02:06:03.089Z,8.20
2022-11-14T02:07:33.963Z,8.15
2022-11-14T02:09:04.534Z,8.10
2022-11-14T02:11:49.275Z,8.09
2022-11-14T02:14:36.592Z,8.11
2022-11-14T02:17:30.604Z,8.10
2022-11-14T02:18:52.057Z,7.98
2022-11-14T02:21:42.312Z,8.11
2022-11-14T02:23:11.456Z,7.98
2022-11-14T02:25:55.130Z,8.14
2022-11-14T02:27:22.236Z,8.02
2022-11-14T02:30:08.966Z,8.10
2022-11-14T02:31:36.899Z,7.99
2022-11-14T02:34:19.820Z,8.00
2022-11-14T02:37:07.958Z,7.97
2022-11-14T02:38:37.047Z,7.84
2022-11-14T02:41:22.089Z,7.87
2022-11-14T02:44:06.877Z,7.90
2022-11-14T02:45:34.280Z,7.75
2022-11-14T02:48:19.154Z,7.91
2022-11-14T02:49:46.843Z,7.81
2022-11-14T02:51:14.842Z,7.81
2022-11-14T02:52:42.865Z,7.85
2022-11-14T02:54:10.927Z,7.89
2022-11-14T02:56:58.011Z,7.99
2022-11-14T02:58:25.437Z,7.79
2022-11-14T03:01:24.642Z,7.85
2022-11-14T03:02:39.360Z,7.75
2022-11-14T03:05:24.310Z,7.84
2022-11-14T03:08:07.132Z,7.82
2022-11-14T03:09:35.195Z,7.71
2022-11-14T03:11:08.523Z,7.70
2022-11-14T03:12:36.038Z,7.70
2022-11-14T03:15:19.363Z,7.81
2022-11-14T03:18:02.317Z,7.79
2022-11-14T03:19:29.486Z,7.69
2022-11-14T03:20:57.111Z,7.70
2022-11-14T03:22:25.346Z,7.68
2022-11-14T03:23:53.083Z,7.70
2022-11-14T03:26:34.955Z,7.74
2022-11-14T03:28:02.859Z,7.60
2022-11-14T03:29:30.233Z,7.61
2022-11-14T03:32:12.294Z,7.71
2022-11-14T03:34:54.850Z,7.63
2022-11-14T03:37:38.551Z,7.65
2022-11-14T03:40:22.800Z,7.64
2022-11-14T03:43:06.774Z,7.67
2022-11-14T03:44:34.143Z,7.57
2022-11-14T03:47:18.648Z,7.63
2022-11-14T03:50:20.352Z,7.51
2022-11-14T03:51:55.534Z,7.40
2022-11-14T03:53:23.443Z,7.37
2022-11-14T03:56:07.433Z,7.40
2022-11-14T03:57:35.788Z,7.29
2022-11-14T07:17:16.765Z,7.94
2022-11-14T07:19:59.276Z,8.07
2022-11-14T07:21:28.751Z,7.97
2022-11-14T07:24:12.255Z,8.15
2022-11-14T07:25:40.798Z,8.00
2022-11-14T07:27:12.436Z,7.97
2022-11-14T07:28:42.663Z,7.99
2022-11-14T07:31:26.734Z,7.89
2022-11-14T07:34:14.332Z,7.84
2022-11-14T07:36:56.172Z,7.82
2022-11-14T07:39:38.721Z,7.75
2022-11-14T07:41:09.564Z,7.59
2022-11-14T07:43:51.153Z,7.82
2022-11-14T07:46:35.578Z,7.83
2022-11-14T07:48:03.803Z,7.77
2022-11-14T07:49:32.765Z,7.81
2022-11-14T07:52:18.064Z,8.09
2022-11-14T07:53:45.324Z,8.06
2022-11-14T07:56:30.581Z,8.37
2022-11-14T07:59:16.412Z,8.45
2022-11-14T08:00:43.931Z,8.30
2022-11-14T08:03:29.982Z,8.23
2022-11-14T08:06:15.032Z,8.18
2022-11-14T08:08:57.202Z,8.33
2022-11-14T08:11:49.278Z,8.24
2022-11-14T08:14:31.291Z,8.23
2022-11-14T08:17:35.407Z,7.99
2022-11-14T08:20:19.214Z,8.00
2022-11-14T08:23:03.869Z,8.15
2022-11-14T08:25:46.409Z,8.21
2022-11-14T08:28:29.651Z,8.40
2022-11-14T08:31:13.228Z,8.57
2022-11-14T08:33:56.396Z,8.63
2022-11-14T08:36:38.523Z,8.82
2022-11-14T08:38:05.993Z,8.78
2022-11-14T08:40:49.964Z,8.64
2022-11-14T08:43:33.130Z,8.51
2022-11-14T08:46:16.385Z,8.62
2022-11-14T08:49:07.754Z,8.78
2022-11-14T08:52:16.472Z,8.76
2022-11-14T08:55:07.643Z,8.60
2022-11-14T08:57:53.998Z,8.74
2022-11-14T08:59:20.903Z,8.68
2022-11-14T09:02:04.573Z,8.92
2022-11-14T09:04:48.823Z,9.03
2022-11-14T09:06:17.256Z,8.93
2022-11-14T09:07:44.908Z,8.89
2022-11-14T09:10:29.624Z,8.90
2022-11-14T09:11:57.154Z,8.82
2022-11-14T09:14:39.028Z,8.91
2022-11-14T09:17:22.683Z,8.86
2022-11-14T09:18:50.789Z,8.75
2022-11-14T09:21:34.455Z,8.97
2022-11-14T09:24:17.402Z,9.10
2022-11-14T09:27:01.653Z,9.29
2022-11-14T09:29:44.470Z,9.32
2022-11-14T09:32:31.081Z,9.50
2022-11-14T09:33:58.219Z,9.41
2022-11-14T09:36:42.122Z,9.45
2022-11-14T09:39:27.867Z,9.32
2022-11-14T09:44:22.247Z,9.37
2022-11-14T09:47:16.636Z,9.48
2022-11-14T10:17:25.125Z,9.38
2022-11-14T10:20:36.921Z,9.37
2022-11-14T10:22:20.771Z,9.34
2022-11-14T10:25:32.767Z,9.55
2022-11-14T10:27:07.838Z,9.45
2022-11-14T10:30:18.084Z,9.68
2022-11-14T10:34:55.000Z,9.54
2022-11-14T10:40:54.199Z,9.64
2022-11-14T10:43:51.903Z,9.79
2022-11-14T10:47:07.807Z,9.86
2022-11-14T10:48:42.101Z,9.76
2022-11-14T10:51:56.498Z,9.98
2022-11-14T10:55:01.223Z,10.02
2022-11-14T10:57:49.169Z,10.11
2022-11-14T10:59:17.492Z,10.02
2022-11-14T11:01:59.745Z,10.16
2022-11-14T11:03:44.126Z,10.07
2022-11-14T11:05:18.000Z,10.04
2022-11-14T11:08:42.090Z,10.20
2022-11-14T11:10:11.585Z,10.10
2022-11-14T11:11:40.964Z,10.12
2022-11-14T11:13:16.012Z,10.14
2022-11-14T11:14:47.791Z,10.12
2022-11-14T11:17:40.303Z,10.20
2022-11-14T11:20:43.317Z,10.21
2022-11-14T11:22:31.869Z,10.16
2022-11-14T11:27:16.028Z,10.47
2022-11-14T11:30:09.107Z,10.38
2022-11-14T11:34:37.227Z,10.31
2022-11-14T11:36:14.442Z,10.00
2022-11-14T11:37:57.079Z,9.90
2022-11-14T11:40:48.204Z,9.92
2022-11-14T11:47:36.988Z,9.68
2022-11-14T11:50:24.492Z,9.76
2022-11-14T11:51:54.988Z,9.61
2022-11-14T11:55:04.984Z,9.76
2022-11-14T11:58:07.707Z,9.92
2022-11-14T11:59:45.410Z,9.83
2022-11-14T12:02:51.416Z,9.77
2022-11-14T12:05:40.822Z,9.82
2022-11-14T12:09:09.120Z,10.01
2022-11-14T12:10:40.322Z,9.93
2022-11-14T12:13:51.846Z,10.07
2022-11-14T12:17:03.024Z,9.90
2022-11-14T12:20:27.372Z,9.81
2022-11-14T12:22:04.415Z,9.76
2022-11-14T12:23:51.804Z,9.69
2022-11-14T12:27:30.706Z,9.63
2022-11-14T12:29:14.140Z,9.60
2022-11-14T12:30:46.327Z,9.71
2022-11-14T12:32:16.912Z,9.80
2022-11-14T12:35:24.127Z,10.03
2022-11-14T12:39:29.844Z,10.00
2022-11-14T12:41:01.283Z,9.90
2022-11-14T12:43:47.014Z,10.01
2022-11-14T12:47:10.845Z,9.85
2022-11-14T12:50:06.772Z,9.97
2022-11-14T12:53:08.453Z,10.02
2022-11-14T12:57:47.351Z,9.97
2022-11-14T13:00:51.807Z,9.85
2022-11-14T13:04:23.701Z,9.78
2022-11-14T13:07:34.498Z,9.70
2022-11-14T13:10:42.984Z,9.60
2022-11-14T13:14:20.408Z,9.64
2022-11-14T13:17:46.622Z,9.70
2022-11-14T13:21:20.753Z,9.82
2022-11-14T13:22:48.302Z,9.69
2022-11-14T13:25:33.076Z,9.86
2022-11-14T13:28:39.528Z,9.88
2022-11-14T13:30:07.943Z,9.76
2022-11-14T13:32:59.008Z,9.86
2022-11-14T13:34:33.458Z,9.74
2022-11-14T13:39:20.807Z,9.90
2022-11-14T13:42:26.517Z,9.94
2022-11-14T13:45:48.568Z,9.91
2022-11-14T13:47:38.404Z,9.80
2022-11-14T13:49:16.004Z,9.79
2022-11-14T13:52:02.663Z,9.83
2022-11-14T13:53:32.009Z,9.71
2022-11-14T13:55:01.666Z,9.71
2022-11-14T13:58:24.339Z,9.80
2022-11-14T14:01:39.323Z,9.81
2022-11-14T14:05:04.013Z,9.75
2022-11-14T14:06:51.997Z,9.61
2022-11-14T14:10:27.493Z,9.51
2022-11-14T14:13:55.542Z,9.47
2022-11-14T14:19:28.518Z,9.25
2022-11-14T14:21:13.013Z,9.13
2022-11-14T14:24:04.535Z,9.25
2022-11-14T14:30:17.761Z,9.08
2022-11-14T14:31:45.948Z,8.93
2022-11-14T14:33:14.968Z,8.89
2022-11-14T14:34:42.242Z,8.87
2022-11-14T14:39:32.978Z,8.87
2022-11-14T14:42:18.675Z,8.77
2022-11-14T14:45:18.489Z,8.75
2022-11-14T14:46:45.900Z,8.60
2022-11-14T14:49:37.816Z,8.67
2022-11-14T14:51:07.624Z,8.47
2022-11-14T14:53:53.571Z,8.34
2022-11-14T14:56:47.063Z,8.19
2022-11-14T14:59:32.701Z,8.00
2022-11-14T15:02:29.317Z,7.84
2022-11-14T15:05:27.360Z,7.63
2022-11-14T15:08:16.429Z,7.51
2022-11-14T15:09:57.452Z,7.39
2022-11-14T15:11:31.383Z,7.34
2022-11-14T15:12:56.953Z,7.37
2022-11-14T15:14:31.119Z,7.26
2022-11-14T15:17:14.663Z,7.19
2022-11-14T15:20:00.379Z,7.22
2022-11-14T15:21:29.771Z,7.07
2022-11-14T15:25:07.138Z,6.86
2022-11-14T15:27:52.919Z,6.82
2022-11-14T15:30:38.950Z,6.62
2022-11-14T15:33:30.734Z,6.48
2022-11-14T15:35:25.302Z,6.29
2022-11-14T15:37:14.269Z,6.36
2022-11-14T15:41:35.827Z,6.36
2022-11-14T15:44:38.796Z,5.93
2022-11-14T15:47:42.050Z,5.75
2022-11-14T15:50:33.519Z,5.94
2022-11-14T15:53:24.334Z,6.13
2022-11-14T15:56:10.176Z,6.29
2022-11-14T15:58:58.804Z,6.29
2022-11-14T16:02:21.064Z,6.39
2022-11-14T16:05:06.100Z,6.33
2022-11-14T16:07:50.044Z,6.18
2022-11-14T16:09:20.993Z,6.07
2022-11-14T16:12:04.350Z,6.22
2022-11-14T16:14:46.895Z,6.18
2022-11-14T16:17:34.466Z,6.14
2022-11-14T16:20:20.319Z,6.04
2022-11-14T16:23:04.796Z,5.97
2022-11-14T16:25:49.525Z,5.92
2022-11-14T16:28:31.535Z,5.93
2022-11-14T16:31:17.044Z,5.88
2022-11-14T16:34:04.180Z,5.81
2022-11-14T16:36:48.161Z,5.84
2022-11-14T16:39:31.107Z,5.75
2022-11-14T16:42:14.867Z,5.77
2022-11-14T16:45:02.964Z,5.84
2022-11-14T16:47:45.113Z,5.82
2022-11-14T16:50:31.007Z,5.88
2022-11-14T16:53:15.426Z,5.87
2022-11-14T16:55:57.415Z,5.72
2022-11-14T16:58:41.503Z,5.66
2022-11-14T17:00:11.765Z,5.51
2022-11-14T17:02:55.482Z,5.54
2022-11-14T17:05:57.776Z,5.35
2022-11-14T17:08:41.973Z,5.18
2022-11-14T17:11:26.703Z,5.15
2022-11-14T17:14:08.499Z,5.22
2022-11-14T17:16:51.827Z,5.44
2022-11-14T17:19:34.227Z,5.59
2022-11-14T17:22:20.813Z,5.91
2022-11-14T17:25:11.394Z,5.88
2022-11-14T17:27:54.903Z,5.78
2022-11-14T17:30:41.399Z,5.74
2022-11-14T17:33:23.347Z,5.80
2022-11-14T17:36:08.874Z,5.81
2022-11-14T17:38:51.539Z,5.83
2022-11-14T17:41:35.835Z,5.78
2022-11-14T17:44:19.187Z,5.76
2022-11-14T17:47:13.038Z,5.77
2022-11-14T17:49:55.904Z,5.78
2022-11-14T17:52:37.662Z,5.81
2022-11-14T17:55:20.047Z,5.79
2022-11-14T17:58:24.857Z,5.71
2022-11-14T18:02:28.758Z,5.69
2022-11-14T18:05:12.877Z,5.68
2022-11-14T18:07:56.921Z,5.48
2022-11-14T18:10:40.106Z,5.27
2022-11-14T18:13:27.488Z,5.31
2022-11-14T18:17:32.007Z,5.00
2022-11-14T18:20:15.595Z,4.93
2022-11-14T18:23:00.202Z,5.12
2022-11-14T18:25:43.012Z,5.31
2022-11-14T18:27:09.985Z,5.33
2022-11-14T18:28:37.035Z,5.45
2022-11-14T18:30:20.048Z,5.54
2022-11-14T18:32:51.228Z,5.59
2022-11-14T18:34:20.120Z,5.35
2022-11-14T18:37:15.446Z,5.56
2022-11-14T18:38:49.758Z,5.39
2022-11-14T18:41:52.533Z,5.42
2022-11-14T18:43:20.039Z,5.33
2022-11-14T18:44:48.016Z,5.37
2022-11-14T18:47:34.369Z,5.52
2022-11-14T18:49:01.168Z,5.37
2022-11-14T18:50:28.449Z,5.48
2022-11-14T18:51:57.340Z,5.56
2022-11-14T18:54:40.381Z,5.57
2022-11-14T18:57:29.176Z,5.70
2022-11-14T18:58:56.908Z,5.59
2022-11-14T19:00:27.397Z,5.67
2022-11-14T19:01:55.329Z,5.62
2022-11-14T19:03:23.577Z,5.66
2022-11-14T19:06:09.228Z,5.84
2022-11-14T19:09:15.111Z,5.79
2022-11-14T19:12:16.669Z,5.86
2022-11-14T19:15:01.694Z,5.96
2022-11-14T19:17:48.625Z,5.93
2022-11-14T19:20:32.107Z,5.77
2022-11-14T19:23:16.741Z,5.69
2022-11-14T19:26:05.760Z,5.60
2022-11-14T19:28:49.620Z,5.47
2022-11-14T19:31:33.418Z,5.50
2022-11-14T19:34:20.142Z,5.48
2022-11-14T19:37:04.301Z,5.53
2022-11-14T19:39:46.221Z,5.61
2022-11-14T19:42:35.184Z,5.75
2022-11-14T19:45:18.168Z,5.83
2022-11-14T19:48:00.392Z,5.91
2022-11-14T19:50:43.536Z,5.97
2022-11-14T19:53:26.681Z,6.07
2022-11-14T19:56:11.987Z,6.17
2022-11-14T19:58:56.125Z,6.23
2022-11-14T20:01:41.691Z,6.27
2022-11-14T20:03:11.273Z,6.19
2022-11-14T20:05:54.409Z,6.35
2022-11-14T20:08:37.151Z,6.41
2022-11-14T20:11:22.238Z,6.44
2022-11-14T20:14:06.765Z,6.60
2022-11-14T20:16:50.459Z,6.63
2022-11-14T20:19:33.169Z,6.61
2022-11-14T20:21:11.228Z,6.53
2022-11-14T20:22:38.212Z,6.55
2022-11-14T20:24:05.880Z,6.54
2022-11-14T20:26:52.094Z,6.59
2022-11-14T20:28:19.181Z,6.49
2022-11-14T20:29:46.441Z,6.47
2022-11-14T20:31:16.221Z,6.48
2022-11-14T20:33:59.923Z,6.58
2022-11-14T20:35:28.270Z,6.49
2022-11-14T20:38:12.093Z,6.58
2022-11-14T20:40:55.749Z,6.57
2022-11-14T20:43:39.833Z,6.59
2022-11-14T20:46:23.187Z,6.59
2022-11-14T20:49:08.350Z,6.59
2022-11-14T20:51:50.879Z,6.58
2022-11-14T20:54:34.463Z,6.63
2022-11-14T20:56:04.262Z,6.58
2022-11-14T20:57:33.728Z,6.67
2022-11-14T21:00:18.089Z,6.89
2022-11-14T21:01:46.219Z,6.75
2022-11-14T21:03:13.881Z,6.72
2022-11-14T21:05:56.275Z,6.80
2022-11-14T21:08:46.307Z,6.80
2022-11-14T21:12:08.001Z,6.77
2022-11-14T21:13:55.607Z,6.63
2022-11-14T21:16:40.363Z,6.62
2022-11-14T21:19:42.515Z,6.62
2022-11-14T21:22:28.810Z,6.72
2022-11-14T21:25:13.100Z,6.71
2022-11-14T21:27:55.891Z,6.72
2022-11-14T21:30:38.769Z,6.77
2022-11-14T21:33:23.148Z,6.77
2022-11-14T21:36:30.111Z,6.78
2022-11-14T21:38:55.890Z,6.79
2022-11-14T21:41:39.047Z,6.78
2022-11-14T21:44:22.196Z,6.72
2022-11-14T21:47:15.116Z,6.71
2022-11-14T21:50:01.315Z,6.75
2022-11-14T21:52:43.993Z,6.78
2022-11-14T21:55:26.339Z,6.78
2022-11-14T21:58:09.289Z,6.79
2022-11-14T22:00:50.898Z,6.79
2022-11-14T22:04:09.803Z,6.86
2022-11-14T22:06:53.043Z,7.03
2022-11-14T22:09:39.790Z,7.11
2022-11-14T22:12:21.678Z,7.11
2022-11-14T22:15:05.619Z,7.16
2022-11-14T22:17:48.789Z,7.12
2022-11-14T22:20:32.044Z,7.16
2022-11-14T22:23:15.110Z,7.19
2022-11-14T22:26:00.214Z,7.13
2022-11-14T22:29:01.575Z,7.13
2022-11-14T22:30:30.401Z,7.05
2022-11-14T22:33:34.780Z,7.07
2022-11-14T22:36:20.498Z,7.06
2022-11-14T22:39:02.905Z,7.09
2022-11-14T22:41:47.071Z,7.13
2022-11-14T22:44:29.733Z,7.13
2022-11-14T22:45:57.692Z,7.03
2022-11-14T22:48:42.513Z,7.17
2022-11-14T22:51:27.518Z,7.17
2022-11-14T22:54:12.787Z,7.29
2022-11-14T22:57:04.370Z,7.24
2022-11-14T22:59:51.535Z,7.26
2022-11-14T23:02:38.281Z,7.25
2022-11-14T23:05:23.926Z,7.33
2022-11-14T23:06:51.248Z,7.26
2022-11-14T23:08:20.755Z,7.27
2022-11-14T23:12:51.753Z,7.51
2022-11-14T23:15:34.778Z,7.54
2022-11-14T23:18:18.142Z,7.56
2022-11-14T23:21:15.667Z,7.51
2022-11-14T23:23:59.937Z,7.47
2022-11-14T23:25:27.470Z,7.35
2022-11-14T23:26:55.834Z,7.36
2022-11-14T23:31:26.994Z,7.40
2022-11-14T23:34:09.126Z,7.30
2022-11-14T23:36:51.229Z,7.18
2022-11-14T23:38:18.989Z,7.07
2022-11-14T23:39:46.405Z,7.08
2022-11-14T23:42:37.094Z,7.15
2022-11-14T23:45:20.626Z,7.07
2022-11-14T23:48:04.365Z,6.99
2022-11-14T23:49:31.280Z,6.83
2022-11-14T23:50:59.160Z,6.81
2022-11-14T23:52:27.426Z,6.78
2022-11-14T23:53:55.351Z,6.77
2022-11-14T23:55:22.424Z,6.75
2022-11-14T23:56:51.585Z,6.76
2022-11-14T23:58:20.287Z,6.77
2022-11-14T23:59:53.789Z,6.78
